sensor_id;sensor_type;location;lat;lon;timestamp;pressure;altitude;pressure_sealevel;temperature;humidity
35443;BME280;21561;55.654;37.592;2023-04-10T00:01:56;100593.88;;;8.12;47.22
35443;BME280;21561;55.654;37.592;2023-04-10T00:04:23;100594.84;;;8.17;47.35
35443;BME280;21561;55.654;37.592;2023-04-10T00:06:49;100592.47;;;8.30;47.32
35443;BME280;21561;55.654;37.592;2023-04-10T00:09:16;100586.06;;;8.56;47.00
35443;BME280;21561;55.654;37.592;2023-04-10T00:11:42;100526.88;;;8.78;44.13
35443;BME280;21561;55.654;37.592;2023-04-10T00:14:09;100533.06;;;8.89;44.73
35443;BME280;21561;55.654;37.592;2023-04-10T00:16:36;100528.09;;;9.05;45.43
35443;BME280;21561;55.654;37.592;2023-04-10T00:19:03;100486.69;;;9.08;44.25
35443;BME280;21561;55.654;37.592;2023-04-10T00:21:29;100456.56;;;9.13;43.22
35443;BME280;21561;55.654;37.592;2023-04-10T00:23:56;100479.84;;;9.13;44.78
35443;BME280;21561;55.654;37.592;2023-04-10T00:26:23;100486.84;;;9.20;45.00
35443;BME280;21561;55.654;37.592;2023-04-10T00:28:49;100489.44;;;9.20;44.86
35443;BME280;21561;55.654;37.592;2023-04-10T00:31:16;100476.47;;;9.17;44.80
35443;BME280;21561;55.654;37.592;2023-04-10T00:33:42;100493.69;;;9.15;45.09
35443;BME280;21561;55.654;37.592;2023-04-10T00:36:09;100510.97;;;9.16;45.47
35443;BME280;21561;55.654;37.592;2023-04-10T00:38:36;100504.03;;;9.12;45.42
35443;BME280;21561;55.654;37.592;2023-04-10T00:41:03;100509.16;;;9.09;45.59
35443;BME280;21561;55.654;37.592;2023-04-10T00:43:30;100518.78;;;9.17;45.51
35443;BME280;21561;55.654;37.592;2023-04-10T00:45:56;100511.03;;;9.21;45.15
35443;BME280;21561;55.654;37.592;2023-04-10T00:48:23;100486.84;;;9.17;43.30
35443;BME280;21561;55.654;37.592;2023-04-10T00:50:50;100463.34;;;9.02;43.36
35443;BME280;21561;55.654;37.592;2023-04-10T00:53:16;100465.81;;;8.92;43.67
35443;BME280;21561;55.654;37.592;2023-04-10T00:55:43;100466.56;;;8.84;43.96
35443;BME280;21561;55.654;37.592;2023-04-10T00:58:10;100477.78;;;8.84;44.45
35443;BME280;21561;55.654;37.592;2023-04-10T01:00:40;100489.91;;;8.87;44.70
35443;BME280;21561;55.654;37.592;2023-04-10T01:03:07;100487.31;;;8.87;44.47
35443;BME280;21561;55.654;37.592;2023-04-10T01:05:34;100481.34;;;8.92;44.27
35443;BME280;21561;55.654;37.592;2023-04-10T01:08:10;100477.13;;;9.01;44.09
35443;BME280;21561;55.654;37.592;2023-04-10T01:13:21;100480.75;;;9.15;44.56
35443;BME280;21561;55.654;37.592;2023-04-10T01:15:51;100465.22;;;9.16;44.41
35443;BME280;21561;55.654;37.592;2023-04-10T01:18:21;100473.06;;;9.21;44.60
35443;BME280;21561;55.654;37.592;2023-04-10T01:20:49;100470.50;;;9.26;44.42
35443;BME280;21561;55.654;37.592;2023-04-10T01:25:44;100476.59;;;9.28;44.78
35443;BME280;21561;55.654;37.592;2023-04-10T01:30:45;100480.88;;;9.27;44.73
35443;BME280;21561;55.654;37.592;2023-04-10T01:33:14;100472.19;;;9.21;44.38
35443;BME280;21561;55.654;37.592;2023-04-10T01:35:42;100482.50;;;9.17;44.83
35443;BME280;21561;55.654;37.592;2023-04-10T01:38:09;100491.97;;;9.14;45.04
35443;BME280;21561;55.654;37.592;2023-04-10T01:40:37;100483.22;;;9.03;44.78
35443;BME280;21561;55.654;37.592;2023-04-10T01:43:05;100503.06;;;9.05;45.24
35443;BME280;21561;55.654;37.592;2023-04-10T01:45:33;100500.66;;;9.17;45.10
35443;BME280;21561;55.654;37.592;2023-04-10T01:48:00;100498.06;;;9.17;45.08
35443;BME280;21561;55.654;37.592;2023-04-10T01:50:27;100510.81;;;9.04;45.27
35443;BME280;21561;55.654;37.592;2023-04-10T01:52:54;100512.31;;;8.86;45.67
35443;BME280;21561;55.654;37.592;2023-04-10T01:55:22;100526.00;;;8.76;45.78
35443;BME280;21561;55.654;37.592;2023-04-10T01:57:49;100529.53;;;8.84;45.75
35443;BME280;21561;55.654;37.592;2023-04-10T02:00:16;100539.09;;;8.88;45.67
35443;BME280;21561;55.654;37.592;2023-04-10T02:02:42;100529.59;;;8.87;45.75
35443;BME280;21561;55.654;37.592;2023-04-10T02:05:09;100526.16;;;8.88;45.74
35443;BME280;21561;55.654;37.592;2023-04-10T02:07:48;100530.41;;;8.83;45.84
35443;BME280;21561;55.654;37.592;2023-04-10T02:12:51;100539.50;;;8.59;46.19
35443;BME280;21561;55.654;37.592;2023-04-10T02:15:20;100544.81;;;8.66;46.26
35443;BME280;21561;55.654;37.592;2023-04-10T02:17:48;100538.72;;;8.62;46.11
35443;BME280;21561;55.654;37.592;2023-04-10T02:20:15;100570.34;;;8.44;47.79
35443;BME280;21561;55.654;37.592;2023-04-10T02:22:43;100565.00;;;8.38;46.56
35443;BME280;21561;55.654;37.592;2023-04-10T02:25:10;100564.19;;;8.39;46.59
35443;BME280;21561;55.654;37.592;2023-04-10T02:27:37;100581.44;;;8.40;47.99
35443;BME280;21561;55.654;37.592;2023-04-10T02:30:04;100647.03;;;8.42;50.37
35443;BME280;21561;55.654;37.592;2023-04-10T02:32:31;100667.63;;;8.39;49.98
35443;BME280;21561;55.654;37.592;2023-04-10T02:34:59;100674.41;;;8.32;50.42
35443;BME280;21561;55.654;37.592;2023-04-10T02:37:28;100653.88;;;8.40;48.92
35443;BME280;21561;55.654;37.592;2023-04-10T02:39:54;100645.38;;;8.46;49.14
35443;BME280;21561;55.654;37.592;2023-04-10T02:42:21;100667.75;;;8.45;49.86
35443;BME280;21561;55.654;37.592;2023-04-10T02:44:48;100671.22;;;8.44;49.76
35443;BME280;21561;55.654;37.592;2023-04-10T02:47:15;100641.13;;;8.49;48.79
35443;BME280;21561;55.654;37.592;2023-04-10T02:49:42;100635.25;;;8.59;49.41
35443;BME280;21561;55.654;37.592;2023-04-10T02:52:09;100671.59;;;8.66;50.40
35443;BME280;21561;55.654;37.592;2023-04-10T02:54:36;100684.47;;;8.63;50.66
35443;BME280;21561;55.654;37.592;2023-04-10T02:57:02;100658.72;;;8.72;49.28
35443;BME280;21561;55.654;37.592;2023-04-10T02:59:30;100646.81;;;8.80;48.75
35443;BME280;21561;55.654;37.592;2023-04-10T03:01:56;100694.22;;;8.77;51.32
35443;BME280;21561;55.654;37.592;2023-04-10T03:04:23;100713.97;;;8.74;51.73
35443;BME280;21561;55.654;37.592;2023-04-10T03:06:50;100720.06;;;8.76;52.05
35443;BME280;21561;55.654;37.592;2023-04-10T03:09:17;100721.03;;;8.81;51.10
35443;BME280;21561;55.654;37.592;2023-04-10T03:11:43;100723.81;;;8.95;51.90
35443;BME280;21561;55.654;37.592;2023-04-10T03:14:10;100761.81;;;8.96;53.00
35443;BME280;21561;55.654;37.592;2023-04-10T03:16:37;100756.63;;;8.94;53.18
35443;BME280;21561;55.654;37.592;2023-04-10T03:19:03;100750.59;;;8.95;52.16
35443;BME280;21561;55.654;37.592;2023-04-10T03:21:30;100710.13;;;9.02;50.98
35443;BME280;21561;55.654;37.592;2023-04-10T03:23:57;100732.63;;;9.05;51.54
35443;BME280;21561;55.654;37.592;2023-04-10T03:26:23;100736.09;;;9.05;51.91
35443;BME280;21561;55.654;37.592;2023-04-10T03:28:50;100772.44;;;9.10;54.01
35443;BME280;21561;55.654;37.592;2023-04-10T03:31:17;100784.38;;;9.03;54.81
35443;BME280;21561;55.654;37.592;2023-04-10T03:33:44;100813.41;;;8.85;56.08
35443;BME280;21561;55.654;37.592;2023-04-10T03:36:11;100817.59;;;8.78;56.33
35443;BME280;21561;55.654;37.592;2023-04-10T03:38:38;100810.66;;;8.76;56.10
35443;BME280;21561;55.654;37.592;2023-04-10T03:41:05;100808.97;;;8.78;56.44
35443;BME280;21561;55.654;37.592;2023-04-10T03:43:31;100804.84;;;8.89;56.16
35443;BME280;21561;55.654;37.592;2023-04-10T03:45:58;100776.66;;;9.05;54.18
35443;BME280;21561;55.654;37.592;2023-04-10T03:48:25;100742.31;;;9.16;52.92
35443;BME280;21561;55.654;37.592;2023-04-10T03:50:53;100728.56;;;9.22;52.44
35443;BME280;21561;55.654;37.592;2023-04-10T03:53:20;100726.16;;;9.31;52.51
35443;BME280;21561;55.654;37.592;2023-04-10T03:55:47;100711.53;;;9.36;52.62
35443;BME280;21561;55.654;37.592;2023-04-10T03:58:13;100714.22;;;9.43;52.27
35443;BME280;21561;55.654;37.592;2023-04-10T04:00:40;100704.75;;;9.45;52.35
35443;BME280;21561;55.654;37.592;2023-04-10T04:03:07;100717.66;;;9.42;52.84
35443;BME280;21561;55.654;37.592;2023-04-10T04:05:34;100723.56;;;9.31;53.24
35443;BME280;21561;55.654;37.592;2023-04-10T04:08:00;100729.47;;;9.23;53.31
35443;BME280;21561;55.654;37.592;2023-04-10T04:10:29;100721.56;;;9.15;53.13
35443;BME280;21561;55.654;37.592;2023-04-10T04:12:55;100721.38;;;9.03;53.35
35443;BME280;21561;55.654;37.592;2023-04-10T04:15:22;100733.31;;;8.94;54.22
35443;BME280;21561;55.654;37.592;2023-04-10T04:17:49;100744.41;;;8.87;54.70
35443;BME280;21561;55.654;37.592;2023-04-10T04:20:16;100746.94;;;8.84;54.78
35443;BME280;21561;55.654;37.592;2023-04-10T04:22:42;100751.22;;;8.82;55.04
35443;BME280;21561;55.654;37.592;2023-04-10T04:25:09;100760.63;;;8.77;55.67
35443;BME280;21561;55.654;37.592;2023-04-10T04:27:37;100762.31;;;8.75;55.24
35443;BME280;21561;55.654;37.592;2023-04-10T04:30:03;100744.19;;;8.75;54.75
35443;BME280;21561;55.654;37.592;2023-04-10T04:32:31;100744.25;;;8.78;54.79
35443;BME280;21561;55.654;37.592;2023-04-10T04:34:58;100745.22;;;8.83;54.83
35443;BME280;21561;55.654;37.592;2023-04-10T04:37:25;100734.94;;;8.89;54.02
35443;BME280;21561;55.654;37.592;2023-04-10T04:39:51;100734.22;;;8.96;54.38
35443;BME280;21561;55.654;37.592;2023-04-10T04:42:18;100738.59;;;9.01;54.71
35443;BME280;21561;55.654;37.592;2023-04-10T04:44:45;100736.19;;;9.10;54.25
35443;BME280;21561;55.654;37.592;2023-04-10T04:47:11;100723.31;;;9.16;54.04
35443;BME280;21561;55.654;37.592;2023-04-10T04:49:38;100718.22;;;9.21;53.83
35443;BME280;21561;55.654;37.592;2023-04-10T04:52:04;100717.41;;;9.25;53.64
35443;BME280;21561;55.654;37.592;2023-04-10T04:54:31;100720.97;;;9.31;54.00
35443;BME280;21561;55.654;37.592;2023-04-10T04:56:58;100721.94;;;9.40;53.80
35443;BME280;21561;55.654;37.592;2023-04-10T04:59:24;100716.88;;;9.46;53.78
35443;BME280;21561;55.654;37.592;2023-04-10T05:01:51;100725.56;;;9.51;54.19
35443;BME280;21561;55.654;37.592;2023-04-10T05:04:18;100737.75;;;9.58;53.90
35443;BME280;21561;55.654;37.592;2023-04-10T05:06:46;100726.63;;;9.65;53.79
35443;BME280;21561;55.654;37.592;2023-04-10T05:09:12;100717.25;;;9.73;53.30
35443;BME280;21561;55.654;37.592;2023-04-10T05:11:39;100718.22;;;9.83;53.34
35443;BME280;21561;55.654;37.592;2023-04-10T05:14:06;100728.69;;;9.89;53.70
35443;BME280;21561;55.654;37.592;2023-04-10T05:16:32;100734.81;;;9.96;54.04
35443;BME280;21561;55.654;37.592;2023-04-10T05:18:59;100726.28;;;10.03;53.87
35443;BME280;21561;55.654;37.592;2023-04-10T05:21:26;100717.72;;;10.10;53.02
35443;BME280;21561;55.654;37.592;2023-04-10T05:23:53;100736.91;;;10.25;54.17
35443;BME280;21561;55.654;37.592;2023-04-10T05:26:20;100725.03;;;10.45;53.14
35443;BME280;21561;55.654;37.592;2023-04-10T05:28:46;100709.66;;;10.61;52.80
35443;BME280;21561;55.654;37.592;2023-04-10T05:31:13;100709.75;;;10.73;52.52
35443;BME280;21561;55.654;37.592;2023-04-10T05:33:39;100706.38;;;10.80;52.50
35443;BME280;21561;55.654;37.592;2023-04-10T05:36:07;100701.25;;;10.89;52.20
35443;BME280;21561;55.654;37.592;2023-04-10T05:38:33;100691.75;;;10.93;52.10
35443;BME280;21561;55.654;37.592;2023-04-10T05:41:01;100690.94;;;10.99;52.23
35443;BME280;21561;55.654;37.592;2023-04-10T05:43:27;100680.56;;;11.00;51.43
35443;BME280;21561;55.654;37.592;2023-04-10T05:45:54;100687.56;;;11.09;51.65
35443;BME280;21561;55.654;37.592;2023-04-10T05:48:20;100673.69;;;11.10;51.14
35443;BME280;21561;55.654;37.592;2023-04-10T05:50:51;100682.38;;;11.15;51.32
35443;BME280;21561;55.654;37.592;2023-04-10T05:53:18;100683.31;;;11.23;51.45
35443;BME280;21561;55.654;37.592;2023-04-10T05:55:48;100682.53;;;11.37;51.28
35443;BME280;21561;55.654;37.592;2023-04-10T05:58:16;100677.44;;;11.55;50.93
35443;BME280;21561;55.654;37.592;2023-04-10T06:00:43;100670.56;;;11.63;51.05
35443;BME280;21561;55.654;37.592;2023-04-10T06:03:10;100656.72;;;11.71;49.97
35443;BME280;21561;55.654;37.592;2023-04-10T06:05:36;100659.31;;;11.75;50.47
35443;BME280;21561;55.654;37.592;2023-04-10T06:08:03;100638.56;;;11.83;49.94
35443;BME280;21561;55.654;37.592;2023-04-10T06:10:29;100628.22;;;11.91;49.62
35443;BME280;21561;55.654;37.592;2023-04-10T06:12:56;100616.94;;;11.90;49.19
35443;BME280;21561;55.654;37.592;2023-04-10T06:15:23;100636.06;;;12.01;49.98
35443;BME280;21561;55.654;37.592;2023-04-10T06:17:49;100641.28;;;12.11;50.08
35443;BME280;21561;55.654;37.592;2023-04-10T06:20:16;100634.34;;;12.13;49.53
35443;BME280;21561;55.654;37.592;2023-04-10T06:22:43;100634.34;;;12.08;49.82
35443;BME280;21561;55.654;37.592;2023-04-10T06:25:09;100627.41;;;12.02;49.08
35443;BME280;21561;55.654;37.592;2023-04-10T06:27:36;100610.00;;;11.97;48.85
35443;BME280;21561;55.654;37.592;2023-04-10T06:30:02;100610.03;;;11.92;49.06
35443;BME280;21561;55.654;37.592;2023-04-10T06:32:29;100630.75;;;11.88;49.39
35443;BME280;21561;55.654;37.592;2023-04-10T06:34:56;100622.97;;;11.89;49.30
35443;BME280;21561;55.654;37.592;2023-04-10T06:37:29;100624.78;;;11.92;49.21
35443;BME280;21561;55.654;37.592;2023-04-10T06:40:03;100629.09;;;11.94;49.59
35443;BME280;21561;55.654;37.592;2023-04-10T06:42:29;100636.06;;;12.05;49.46
35443;BME280;21561;55.654;37.592;2023-04-10T06:44:56;100638.69;;;12.14;49.56
35443;BME280;21561;55.654;37.592;2023-04-10T06:47:23;100617.88;;;12.14;48.90
35443;BME280;21561;55.654;37.592;2023-04-10T06:49:50;100613.53;;;12.13;48.28
35443;BME280;21561;55.654;37.592;2023-04-10T06:52:16;100611.81;;;12.18;47.80
35443;BME280;21561;55.654;37.592;2023-04-10T06:54:43;100589.25;;;12.14;47.77
35443;BME280;21561;55.654;37.592;2023-04-10T06:57:10;100601.38;;;12.15;48.18
35443;BME280;21561;55.654;37.592;2023-04-10T06:59:36;100558.00;;;11.98;46.62
35443;BME280;21561;55.654;37.592;2023-04-10T07:02:03;100551.94;;;11.96;47.02
35443;BME280;21561;55.654;37.592;2023-04-10T07:04:30;100580.56;;;12.07;47.76
35443;BME280;21561;55.654;37.592;2023-04-10T07:06:57;100580.59;;;12.22;47.48
35443;BME280;21561;55.654;37.592;2023-04-10T07:09:24;100534.63;;;12.35;45.41
35443;BME280;21561;55.654;37.592;2023-04-10T07:11:51;100545.03;;;12.48;46.21
35443;BME280;21561;55.654;37.592;2023-04-10T07:14:18;100526.81;;;12.48;45.70
35443;BME280;21561;55.654;37.592;2023-04-10T07:16:44;100556.31;;;12.54;46.88
35443;BME280;21561;55.654;37.592;2023-04-10T07:19:11;100558.91;;;12.62;46.92
35443;BME280;21561;55.654;37.592;2023-04-10T07:21:38;100563.25;;;12.69;47.00
35443;BME280;21561;55.654;37.592;2023-04-10T07:24:04;100534.56;;;12.75;45.62
35443;BME280;21561;55.654;37.592;2023-04-10T07:26:31;100461.66;;;12.74;44.47
35443;BME280;21561;55.654;37.592;2023-04-10T07:28:58;100457.31;;;12.77;44.06
35443;BME280;21561;55.654;37.592;2023-04-10T07:31:24;100496.38;;;12.84;45.65
35443;BME280;21561;55.654;37.592;2023-04-10T07:33:51;100534.56;;;12.83;46.17
35443;BME280;21561;55.654;37.592;2023-04-10T07:36:18;100532.84;;;12.82;46.22
35443;BME280;21561;55.654;37.592;2023-04-10T07:38:44;100526.75;;;12.80;46.33
35443;BME280;21561;55.654;37.592;2023-04-10T07:41:11;100543.25;;;12.80;46.56
35443;BME280;21561;55.654;37.592;2023-04-10T07:43:38;100430.41;;;12.74;43.31
35443;BME280;21561;55.654;37.592;2023-04-10T07:46:04;100469.50;;;12.69;44.41
35443;BME280;21561;55.654;37.592;2023-04-10T07:48:32;100443.47;;;12.54;43.99
35443;BME280;21561;55.654;37.592;2023-04-10T07:50:58;100482.56;;;12.46;45.20
35443;BME280;21561;55.654;37.592;2023-04-10T07:53:25;100452.22;;;12.40;43.99
35443;BME280;21561;55.654;37.592;2023-04-10T07:55:52;100456.53;;;12.35;44.35
35443;BME280;21561;55.654;37.592;2023-04-10T07:58:19;100464.38;;;12.23;44.43
35443;BME280;21561;55.654;37.592;2023-04-10T08:00:45;100483.44;;;12.28;45.04
35443;BME280;21561;55.654;37.592;2023-04-10T08:03:13;100492.09;;;12.27;45.08
35443;BME280;21561;55.654;37.592;2023-04-10T08:05:41;100493.88;;;12.31;45.19
35443;BME280;21561;55.654;37.592;2023-04-10T08:08:07;100475.63;;;12.34;44.84
35443;BME280;21561;55.654;37.592;2023-04-10T08:10:37;100470.44;;;12.31;44.58
35443;BME280;21561;55.654;37.592;2023-04-10T08:13:04;100478.22;;;12.22;44.65
35443;BME280;21561;55.654;37.592;2023-04-10T08:15:32;100492.13;;;12.18;45.06
35443;BME280;21561;55.654;37.592;2023-04-10T08:17:58;100492.09;;;12.15;45.32
35443;BME280;21561;55.654;37.592;2023-04-10T08:20:25;100500.81;;;12.17;45.55
35443;BME280;21561;55.654;37.592;2023-04-10T08:22:52;100495.56;;;12.18;45.13
35443;BME280;21561;55.654;37.592;2023-04-10T08:25:19;100486.91;;;12.21;44.48
35443;BME280;21561;55.654;37.592;2023-04-10T08:27:45;100486.91;;;12.18;45.04
35443;BME280;21561;55.654;37.592;2023-04-10T08:30:12;100488.66;;;12.19;45.01
35443;BME280;21561;55.654;37.592;2023-04-10T08:32:38;100492.09;;;12.27;45.00
35443;BME280;21561;55.654;37.592;2023-04-10T08:35:05;100467.81;;;12.40;44.55
35443;BME280;21561;55.654;37.592;2023-04-10T08:37:32;100467.78;;;12.62;44.86
35443;BME280;21561;55.654;37.592;2023-04-10T08:39:58;100443.44;;;12.78;43.40
35443;BME280;21561;55.654;37.592;2023-04-10T08:42:25;100444.22;;;12.97;44.44
35443;BME280;21561;55.654;37.592;2023-04-10T08:44:52;100438.06;;;13.12;44.02
35443;BME280;21561;55.654;37.592;2023-04-10T08:47:19;100425.91;;;13.17;44.08
35443;BME280;21561;55.654;37.592;2023-04-10T08:49:47;100434.50;;;13.29;44.58
35443;BME280;21561;55.654;37.592;2023-04-10T08:52:23;100431.03;;;13.34;44.10
35443;BME280;21561;55.654;37.592;2023-04-10T08:54:52;100437.94;;;13.43;44.58
35443;BME280;21561;55.654;37.592;2023-04-10T08:57:19;100420.53;;;13.48;43.70
35443;BME280;21561;55.654;37.592;2023-04-10T08:59:48;100425.72;;;13.51;44.37
35443;BME280;21561;55.654;37.592;2023-04-10T09:02:14;100396.16;;;13.49;43.32
35443;BME280;21561;55.654;37.592;2023-04-10T09:04:48;100362.34;;;13.39;42.27
35443;BME280;21561;55.654;37.592;2023-04-10T09:07:16;100371.91;;;13.38;42.35
35443;BME280;21561;55.654;37.592;2023-04-10T09:09:42;100397.06;;;13.47;43.59
35443;BME280;21561;55.654;37.592;2023-04-10T09:12:10;100411.78;;;13.54;44.00
35443;BME280;21561;55.654;37.592;2023-04-10T09:14:37;100375.28;;;13.52;42.92
35443;BME280;21561;55.654;37.592;2023-04-10T09:17:20;100368.47;;;13.36;42.87
35443;BME280;21561;55.654;37.592;2023-04-10T09:19:47;100362.41;;;13.31;43.01
35443;BME280;21561;55.654;37.592;2023-04-10T09:22:15;100399.75;;;13.33;43.91
35443;BME280;21561;55.654;37.592;2023-04-10T09:24:43;100385.78;;;13.43;42.99
35443;BME280;21561;55.654;37.592;2023-04-10T09:27:10;100379.66;;;13.50;43.24
35443;BME280;21561;55.654;37.592;2023-04-10T09:29:52;100300.63;;;13.45;41.25
35443;BME280;21561;55.654;37.592;2023-04-10T09:35:04;100295.38;;;13.51;41.70
35443;BME280;21561;55.654;37.592;2023-04-10T09:37:34;100297.09;;;13.49;42.26
35443;BME280;21561;55.654;37.592;2023-04-10T09:40:01;100299.69;;;13.52;42.17
35443;BME280;21561;55.654;37.592;2023-04-10T09:42:29;100287.38;;;13.65;41.14
35443;BME280;21561;55.654;37.592;2023-04-10T09:44:56;100296.88;;;13.75;41.26
35443;BME280;21561;55.654;37.592;2023-04-10T09:47:23;100236.78;;;13.83;40.20
35443;BME280;21561;55.654;37.592;2023-04-10T09:49:53;100268.94;;;13.85;41.32
35443;BME280;21561;55.654;37.592;2023-04-10T09:52:21;100272.47;;;13.81;41.55
35443;BME280;21561;55.654;37.592;2023-04-10T09:54:48;100263.72;;;13.85;40.98
35443;BME280;21561;55.654;37.592;2023-04-10T09:57:17;100261.88;;;13.97;40.74
35443;BME280;21561;55.654;37.592;2023-04-10T09:59:48;100251.56;;;13.84;40.86
35443;BME280;21561;55.654;37.592;2023-04-10T10:02:19;100283.69;;;13.88;41.76
35443;BME280;21561;55.654;37.592;2023-04-10T10:04:47;100261.03;;;13.93;40.64
35443;BME280;21561;55.654;37.592;2023-04-10T10:07:15;100252.19;;;14.06;40.34
35443;BME280;21561;55.654;37.592;2023-04-10T10:09:43;100263.53;;;14.04;41.50
35443;BME280;21561;55.654;37.592;2023-04-10T10:12:11;100277.34;;;14.12;41.75
35443;BME280;21561;55.654;37.592;2023-04-10T10:14:49;100200.09;;;14.00;38.90
35443;BME280;21561;55.654;37.592;2023-04-10T10:17:19;100205.34;;;13.96;40.10
35443;BME280;21561;55.654;37.592;2023-04-10T10:20:06;100187.19;;;13.86;39.50
35443;BME280;21561;55.654;37.592;2023-04-10T10:22:34;100188.03;;;13.90;39.70
35443;BME280;21561;55.654;37.592;2023-04-10T10:25:01;100157.88;;;14.34;38.06
35443;BME280;21561;55.654;37.592;2023-04-10T10:27:31;100095.81;;;15.04;37.15
35443;BME280;21561;55.654;37.592;2023-04-10T10:30:02;100055.31;;;15.69;37.22
35443;BME280;21561;55.654;37.592;2023-04-10T10:32:43;99999.41;;;16.47;36.19
35443;BME280;21561;55.654;37.592;2023-04-10T10:35:11;100012.63;;;17.09;36.17
35443;BME280;21561;55.654;37.592;2023-04-10T10:37:38;99996.47;;;17.53;35.34
35443;BME280;21561;55.654;37.592;2023-04-10T10:40:19;99914.22;;;17.55;33.73
35443;BME280;21561;55.654;37.592;2023-04-10T10:45:36;99909.81;;;18.11;34.89
35443;BME280;21561;55.654;37.592;2023-04-10T10:48:06;99929.16;;;18.59;34.94
35443;BME280;21561;55.654;37.592;2023-04-10T10:50:49;99825.31;;;18.96;33.04
35443;BME280;21561;55.654;37.592;2023-04-10T10:53:32;99713.53;;;18.85;30.40
35443;BME280;21561;55.654;37.592;2023-04-10T10:56:12;99816.03;;;19.31;34.48
35443;BME280;21561;55.654;37.592;2023-04-10T11:01:15;99816.97;;;20.14;34.05
35443;BME280;21561;55.654;37.592;2023-04-10T11:03:42;99732.25;;;20.42;33.39
35443;BME280;21561;55.654;37.592;2023-04-10T11:06:16;99716.53;;;20.40;33.71
35443;BME280;21561;55.654;37.592;2023-04-10T11:08:45;99630.16;;;19.70;31.47
35443;BME280;21561;55.654;37.592;2023-04-10T11:11:14;99645.19;;;18.41;32.40
35443;BME280;21561;55.654;37.592;2023-04-10T11:16:39;99755.59;;;16.84;33.54
35443;BME280;21561;55.654;37.592;2023-04-10T11:19:08;99767.84;;;16.54;34.49
35443;BME280;21561;55.654;37.592;2023-04-10T11:24:50;99784.13;;;16.93;34.14
35443;BME280;21561;55.654;37.592;2023-04-10T11:27:36;99774.56;;;16.92;33.54
35443;BME280;21561;55.654;37.592;2023-04-10T11:30:03;99725.75;;;16.60;32.68
35443;BME280;21561;55.654;37.592;2023-04-10T11:32:39;99770.88;;;17.00;33.57
35443;BME280;21561;55.654;37.592;2023-04-10T11:35:06;99735.75;;;17.57;33.00
35443;BME280;21561;55.654;37.592;2023-04-10T11:37:33;99723.41;;;18.09;33.00
35443;BME280;21561;55.654;37.592;2023-04-10T11:40:05;99733.81;;;18.12;33.01
35443;BME280;21561;55.654;37.592;2023-04-10T11:42:32;99666.41;;;17.64;31.50
35443;BME280;21561;55.654;37.592;2023-04-10T11:44:59;99688.41;;;17.35;31.91
35443;BME280;21561;55.654;37.592;2023-04-10T11:47:31;99710.75;;;17.97;32.27
35443;BME280;21561;55.654;37.592;2023-04-10T11:49:58;99639.56;;;18.50;31.34
35443;BME280;21561;55.654;37.592;2023-04-10T11:52:25;99640.25;;;18.32;31.92
35443;BME280;21561;55.654;37.592;2023-04-10T11:54:51;99679.69;;;18.08;32.59
35443;BME280;21561;55.654;37.592;2023-04-10T11:57:18;99667.41;;;17.85;32.81
35443;BME280;21561;55.654;37.592;2023-04-10T11:59:48;99698.44;;;17.22;32.14
35443;BME280;21561;55.654;37.592;2023-04-10T12:02:15;99746.09;;;16.80;33.91
35443;BME280;21561;55.654;37.592;2023-04-10T12:04:42;99762.47;;;16.29;34.84
35443;BME280;21561;55.654;37.592;2023-04-10T12:07:09;99795.41;;;16.06;34.99
35443;BME280;21561;55.654;37.592;2023-04-10T12:09:36;99801.91;;;15.90;34.94
35443;BME280;21561;55.654;37.592;2023-04-10T12:12:03;99807.84;;;15.62;34.72
35443;BME280;21561;55.654;37.592;2023-04-10T12:14:32;99811.25;;;15.30;35.39
35443;BME280;21561;55.654;37.592;2023-04-10T12:16:59;99842.16;;;15.11;35.97
35443;BME280;21561;55.654;37.592;2023-04-10T12:19:26;99844.03;;;15.05;35.81
35443;BME280;21561;55.654;37.592;2023-04-10T12:21:53;99883.28;;;14.60;36.62
35443;BME280;21561;55.654;37.592;2023-04-10T12:27:05;99902.78;;;14.41;36.46
35443;BME280;21561;55.654;37.592;2023-04-10T12:29:32;99936.22;;;14.20;38.01
35443;BME280;21561;55.654;37.592;2023-04-10T12:32:05;99967.78;;;14.05;38.10
35443;BME280;21561;55.654;37.592;2023-04-10T12:34:32;99963.47;;;14.02;37.43
35443;BME280;21561;55.654;37.592;2023-04-10T12:36:58;99962.56;;;14.05;37.26
35443;BME280;21561;55.654;37.592;2023-04-10T12:39:25;99976.47;;;14.07;38.19
35443;BME280;21561;55.654;37.592;2023-04-10T12:41:52;99979.97;;;14.04;38.32
35443;BME280;21561;55.654;37.592;2023-04-10T12:44:18;99970.31;;;14.09;37.70
35443;BME280;21561;55.654;37.592;2023-04-10T12:46:45;99969.31;;;14.18;37.61
35443;BME280;21561;55.654;37.592;2023-04-10T12:49:13;99965.66;;;14.28;37.33
35443;BME280;21561;55.654;37.592;2023-04-10T12:51:49;99968.94;;;14.40;37.18
35443;BME280;21561;55.654;37.592;2023-04-10T12:54:26;99983.78;;;14.38;37.87
35443;BME280;21561;55.654;37.592;2023-04-10T12:56:53;99993.63;;;14.22;38.30
35443;BME280;21561;55.654;37.592;2023-04-10T12:59:20;100009.66;;;13.96;38.35
35443;BME280;21561;55.654;37.592;2023-04-10T13:01:48;100028.34;;;13.66;38.83
35443;BME280;21561;55.654;37.592;2023-04-10T13:04:15;100048.59;;;13.47;38.94
35443;BME280;21561;55.654;37.592;2023-04-10T13:06:44;100060.88;;;13.39;39.29
35443;BME280;21561;55.654;37.592;2023-04-10T13:09:14;100060.06;;;13.32;39.55
35443;BME280;21561;55.654;37.592;2023-04-10T13:11:41;100078.31;;;13.28;39.78
35443;BME280;21561;55.654;37.592;2023-04-10T13:14:09;100086.19;;;13.25;39.86
35443;BME280;21561;55.654;37.592;2023-04-10T13:16:36;100086.25;;;13.18;40.07